Mohnton, Pennsylvania
Current Conditions -  °F | °C
As of 7:54 AM on Monday 22 Dec 2014 (Local Time) from KRDG Reporting Station
Haze Haze  
Wind Chill: 24°   Ceiling: 2000
Heat Index: 24°   Visibility: 6mi
Dew Point: 21°   Wind: 0mph
Humidity: 88%   Direction: NA
Pressure: 30.32"   Gusts: NA
Location:  40.29°N, 75.98°W
Report Text: KRDG 221254Z AUTO 00000KT 6SM BR OVC020 M04/M06 A3032 RMK AO2 SLP276 T10441061
Loading
Personal Weather Stations






























Interactive Weather Map New forecast layout! Learn more

10-Day Weather Forecast

Advertisements
Track Severe Weather on mobile